createdAt,value
2018-11-12T00:01:16.756Z,12.30
2018-11-12T00:03:45.122Z,12.30
2018-11-12T00:06:13.529Z,12.30
2018-11-12T00:08:41.866Z,12.30
2018-11-12T00:11:10.187Z,12.20
2018-11-12T00:13:38.539Z,12.20
2018-11-12T00:16:07.644Z,12.20
2018-11-12T00:18:35.994Z,12.20
2018-11-12T00:21:04.405Z,12.30
2018-11-12T00:23:32.751Z,12.30
2018-11-12T00:26:01.196Z,12.20
2018-11-12T00:28:29.555Z,12.20
2018-11-12T00:30:57.917Z,12.20
2018-11-12T00:33:27.152Z,12.30
2018-11-12T00:35:55.490Z,12.20
2018-11-12T00:38:24.715Z,12.20
2018-11-12T00:40:53.067Z,12.20
2018-11-12T00:43:21.403Z,12.10
2018-11-12T00:45:49.765Z,12.10
2018-11-12T00:48:18.123Z,12.10
2018-11-12T00:50:46.507Z,12.10
2018-11-12T00:53:14.815Z,12.00
2018-11-12T00:55:43.265Z,12.00
2018-11-12T00:58:11.609Z,12.00
2018-11-12T01:00:40.043Z,12.00
2018-11-12T01:03:08.405Z,11.90
2018-11-12T01:05:36.899Z,11.90
2018-11-12T01:08:05.259Z,11.90
2018-11-12T01:10:33.596Z,11.90
2018-11-12T01:13:01.956Z,11.90
2018-11-12T01:15:30.301Z,11.90
2018-11-12T01:17:58.675Z,11.90
2018-11-12T01:20:26.991Z,11.80
2018-11-12T01:22:55.436Z,11.80
2018-11-12T01:25:23.761Z,11.80
2018-11-12T01:27:52.114Z,11.80
2018-11-12T01:30:20.490Z,11.70
2018-11-12T01:32:48.838Z,11.70
2018-11-12T01:35:17.940Z,11.70
2018-11-12T01:37:46.277Z,11.70
2018-11-12T01:40:14.633Z,11.70
2018-11-12T01:42:42.986Z,11.70
2018-11-12T01:45:11.330Z,11.70
2018-11-12T01:47:39.737Z,11.70
2018-11-12T01:50:08.086Z,11.70
2018-11-12T01:52:36.492Z,11.80
2018-11-12T01:55:04.857Z,11.80
2018-11-12T01:57:33.969Z,11.80
2018-11-12T02:00:02.316Z,11.80
2018-11-12T02:02:30.717Z,11.80
2018-11-12T02:04:59.172Z,11.80
2018-11-12T02:07:27.504Z,11.80
2018-11-12T02:09:55.828Z,11.80
2018-11-12T02:12:24.171Z,11.80
2018-11-12T02:14:52.515Z,11.70
2018-11-12T02:17:20.867Z,11.80
2018-11-12T02:19:49.277Z,11.80
2018-11-12T02:22:17.621Z,11.70
2018-11-12T02:24:45.947Z,11.70
2018-11-12T02:27:14.317Z,11.70
2018-11-12T02:29:42.670Z,11.70
2018-11-12T02:32:11.792Z,11.70
2018-11-12T02:34:40.178Z,11.70
2018-11-12T02:37:08.547Z,11.70
2018-11-12T02:39:36.899Z,11.70
2018-11-12T02:42:05.234Z,11.70
2018-11-12T02:44:33.587Z,11.70
2018-11-12T02:47:01.921Z,11.70
2018-11-12T02:49:30.272Z,11.70
2018-11-12T02:51:58.591Z,11.70
2018-11-12T02:54:27.009Z,11.70
2018-11-12T02:56:55.356Z,11.70
2018-11-12T02:59:23.693Z,11.70
2018-11-12T03:01:52.056Z,11.70
2018-11-12T03:04:20.428Z,11.70
2018-11-12T03:06:48.811Z,11.70
2018-11-12T03:09:17.130Z,11.60
2018-11-12T03:11:45.470Z,11.70
2018-11-12T03:14:13.844Z,11.60
2018-11-12T03:16:42.216Z,11.60
2018-11-12T03:19:10.626Z,11.60
2018-11-12T03:21:39.034Z,11.60
2018-11-12T03:24:07.384Z,11.60
2018-11-12T03:26:35.737Z,11.60
2018-11-12T03:29:04.220Z,11.60
2018-11-12T03:31:32.529Z,11.60
2018-11-12T03:34:00.905Z,11.60
2018-11-12T03:36:29.278Z,11.60
2018-11-12T03:38:57.584Z,11.60
2018-11-12T03:41:26.019Z,11.60
2018-11-12T03:43:54.395Z,11.60
2018-11-12T03:46:22.772Z,11.50
2018-11-12T03:48:51.114Z,11.60
2018-11-12T03:51:19.523Z,11.50
2018-11-12T03:53:47.847Z,11.50
2018-11-12T03:56:16.287Z,11.50
2018-11-12T03:58:44.609Z,11.50
2018-11-12T04:01:13.038Z,11.50
2018-11-12T04:03:41.717Z,11.50
2018-11-12T04:06:10.833Z,11.50
2018-11-12T04:08:39.216Z,11.50
2018-11-12T04:11:07.558Z,11.50
2018-11-12T04:13:35.967Z,11.50
2018-11-12T04:16:04.345Z,11.50
2018-11-12T04:18:32.755Z,11.50
2018-11-12T04:21:01.202Z,11.50
2018-11-12T04:23:29.535Z,11.50
2018-11-12T04:25:57.862Z,11.50
2018-11-12T04:28:26.219Z,11.50
2018-11-12T04:30:55.344Z,11.50
2018-11-12T04:33:23.725Z,11.50
2018-11-12T04:35:52.088Z,11.50
2018-11-12T04:38:20.451Z,11.50
2018-11-12T04:40:48.867Z,11.40
2018-11-12T04:43:17.192Z,11.40
2018-11-12T04:45:45.552Z,11.40
2018-11-12T04:48:13.962Z,11.40
2018-11-12T04:50:42.384Z,11.40
2018-11-12T04:53:10.746Z,11.30
2018-11-12T04:55:39.146Z,11.30
2018-11-12T04:58:07.616Z,11.40
2018-11-12T05:00:35.966Z,11.30
2018-11-12T05:03:04.380Z,11.30
2018-11-12T05:05:32.738Z,11.30
2018-11-12T05:08:01.848Z,11.40
2018-11-12T05:10:30.204Z,11.30
2018-11-12T05:12:58.520Z,11.40
2018-11-12T05:15:31.837Z,11.30
2018-11-12T05:18:00.144Z,11.30
2018-11-12T05:20:28.497Z,11.30
2018-11-12T05:22:56.860Z,11.30
2018-11-12T05:25:25.329Z,11.30
2018-11-12T05:27:53.652Z,11.30
2018-11-12T05:30:21.980Z,11.30
2018-11-12T05:32:50.334Z,11.30
2018-11-12T05:35:19.445Z,11.30
2018-11-12T05:37:47.864Z,11.20
2018-11-12T05:40:16.207Z,11.20
2018-11-12T05:42:44.581Z,11.30
2018-11-12T05:45:12.927Z,11.30
2018-11-12T05:47:41.290Z,11.30
2018-11-12T05:50:09.659Z,11.20
2018-11-12T05:52:38.108Z,11.30
2018-11-12T05:55:06.454Z,11.20
2018-11-12T05:57:35.569Z,11.30
2018-11-12T06:00:04.652Z,11.30
2018-11-12T06:02:33.162Z,11.20
2018-11-12T06:05:01.605Z,11.30
2018-11-12T06:07:29.874Z,11.30
2018-11-12T06:09:58.248Z,11.40
2018-11-12T06:12:26.608Z,11.40
2018-11-12T06:14:54.982Z,11.50
2018-11-12T06:17:23.329Z,11.70
2018-11-12T06:19:51.735Z,11.80
2018-11-12T06:22:20.105Z,11.80
2018-11-12T06:24:48.446Z,11.70
2018-11-12T06:27:17.582Z,11.60
2018-11-12T06:29:46.062Z,11.60
2018-11-12T06:32:14.416Z,11.60
2018-11-12T06:34:42.859Z,11.50
2018-11-12T06:37:11.302Z,11.50
2018-11-12T06:39:39.652Z,11.50
2018-11-12T06:42:08.131Z,11.40
2018-11-12T06:44:36.475Z,11.50
2018-11-12T06:47:04.815Z,11.40
2018-11-12T06:49:33.193Z,11.40
2018-11-12T06:52:01.558Z,11.40
2018-11-12T06:54:29.878Z,11.40
2018-11-12T06:56:58.227Z,11.30
2018-11-12T06:59:26.564Z,11.30
2018-11-12T07:01:54.991Z,11.40
2018-11-12T07:04:23.320Z,11.40
2018-11-12T07:06:51.705Z,11.40
2018-11-12T07:09:20.054Z,11.40
2018-11-12T07:11:48.403Z,11.40
2018-11-12T07:14:16.770Z,11.40
2018-11-12T07:16:45.849Z,11.40
2018-11-12T07:19:15.004Z,11.40
2018-11-12T07:21:43.368Z,11.40
2018-11-12T07:24:11.944Z,11.40
2018-11-12T07:26:40.270Z,11.40
2018-11-12T07:29:08.696Z,11.40
2018-11-12T07:31:37.026Z,11.40
2018-11-12T07:34:05.356Z,11.40
2018-11-12T07:36:33.730Z,11.50
2018-11-12T07:39:02.066Z,11.50
2018-11-12T07:41:31.178Z,11.50
2018-11-12T07:44:00.284Z,11.50
2018-11-12T07:46:28.683Z,11.50
2018-11-12T07:48:57.148Z,11.60
2018-11-12T07:51:25.644Z,11.60
2018-11-12T07:53:53.894Z,11.70
2018-11-12T07:56:23.078Z,11.90
2018-11-12T07:58:52.110Z,11.90
2018-11-12T08:01:21.216Z,12.00
2018-11-12T08:03:49.620Z,11.90
2018-11-12T08:06:17.901Z,12.00
2018-11-12T08:08:46.234Z,12.10
2018-11-12T08:11:14.578Z,12.10
2018-11-12T08:13:42.940Z,12.30
2018-11-12T08:16:11.301Z,12.40
2018-11-12T08:18:39.742Z,12.60
2018-11-12T08:21:08.044Z,12.60
2018-11-12T08:23:36.379Z,12.80
2018-11-12T08:26:04.805Z,12.80
2018-11-12T08:28:33.130Z,12.80
2018-11-12T08:31:01.478Z,12.80
2018-11-12T08:33:29.844Z,12.80
2018-11-12T08:35:58.204Z,12.80
2018-11-12T08:38:26.535Z,12.80
2018-11-12T08:40:55.132Z,12.80
2018-11-12T08:43:23.219Z,12.90
2018-11-12T08:45:51.573Z,12.90
2018-11-12T08:48:19.955Z,12.90
2018-11-12T08:50:48.263Z,13.00
2018-11-12T08:53:17.399Z,13.10
2018-11-12T08:55:45.862Z,13.00
2018-11-12T08:58:14.879Z,13.20
2018-11-12T09:00:42.529Z,13.30
2018-11-12T09:03:10.882Z,13.60
2018-11-12T09:05:39.338Z,13.80
2018-11-12T09:08:07.638Z,13.90
2018-11-12T09:10:36.708Z,14.00
2018-11-12T09:13:05.074Z,14.00
2018-11-12T09:15:33.430Z,14.00
2018-11-12T09:18:01.809Z,14.00
2018-11-12T09:20:30.152Z,14.00
2018-11-12T09:22:58.489Z,13.90
2018-11-12T09:25:26.835Z,14.00
2018-11-12T09:27:55.210Z,14.10
2018-11-12T09:30:23.536Z,14.10
2018-11-12T09:32:51.946Z,14.10
2018-11-12T09:35:20.197Z,14.20
2018-11-12T09:37:48.632Z,14.30
2018-11-12T09:40:16.965Z,14.30
2018-11-12T09:42:45.378Z,14.30
2018-11-12T09:45:13.749Z,14.30
2018-11-12T09:47:42.905Z,14.30
2018-11-12T09:50:12.069Z,14.30
2018-11-12T09:52:40.386Z,14.30
2018-11-12T09:57:41.676Z,14.20
2018-11-12T10:00:10.955Z,14.10
2018-11-12T10:02:39.695Z,14.00
2018-11-12T10:05:08.976Z,14.10
2018-11-12T10:07:38.331Z,14.20
2018-11-12T10:10:07.830Z,14.20
2018-11-12T10:12:34.862Z,14.30
2018-11-12T10:15:05.286Z,14.40
2018-11-12T10:17:33.878Z,14.40
2018-11-12T10:19:59.192Z,14.50
2018-11-12T10:22:27.546Z,14.50
2018-11-12T10:24:55.900Z,14.60
2018-11-12T10:27:25.013Z,15.00
2018-11-12T10:29:53.372Z,15.00
2018-11-12T10:32:22.496Z,15.40
2018-11-12T10:34:50.864Z,15.40
2018-11-12T10:37:19.218Z,15.60
2018-11-12T10:39:48.721Z,16.00
2018-11-12T10:42:17.038Z,16.00
2018-11-12T10:44:45.352Z,16.20
2018-11-12T10:47:14.610Z,16.30
2018-11-12T10:49:43.001Z,16.40
2018-11-12T10:52:11.348Z,16.50
2018-11-12T10:54:39.825Z,16.60
2018-11-12T10:57:08.034Z,16.80
2018-11-12T10:59:36.401Z,16.90
2018-11-12T11:02:04.751Z,16.90
2018-11-12T11:04:33.865Z,17.10
2018-11-12T11:07:03.022Z,17.20
2018-11-12T11:09:31.356Z,17.20
2018-11-12T11:11:59.739Z,17.40
2018-11-12T11:14:28.086Z,18.00
2018-11-12T11:16:57.210Z,19.40
2018-11-12T11:19:25.596Z,19.40
2018-11-12T11:21:53.891Z,19.60
2018-11-12T11:24:22.275Z,19.80
2018-11-12T11:26:50.643Z,19.80
2018-11-12T11:29:18.966Z,19.70
2018-11-12T11:31:47.443Z,19.50
2018-11-12T11:34:15.715Z,19.30
2018-11-12T11:36:44.058Z,19.00
2018-11-12T11:39:12.402Z,19.20
2018-11-12T11:41:41.660Z,20.10
2018-11-12T11:44:09.981Z,20.10
2018-11-12T11:46:38.509Z,20.20
2018-11-12T11:49:06.862Z,20.20
2018-11-12T11:51:35.252Z,19.90
2018-11-12T11:54:04.360Z,19.30
2018-11-12T11:56:32.883Z,19.30
2018-11-12T11:59:01.101Z,19.10
2018-11-12T12:01:29.442Z,19.10
2018-11-12T12:03:58.654Z,19.70
2018-11-12T12:06:26.984Z,19.60
2018-11-12T12:08:55.413Z,20.30
2018-11-12T12:11:24.425Z,21.80
2018-11-12T12:13:52.794Z,21.80
2018-11-12T12:16:21.883Z,22.80
2018-11-12T12:18:51.183Z,23.10
2018-11-12T12:21:20.313Z,23.20
2018-11-12T12:23:48.684Z,23.20
2018-11-12T12:26:17.078Z,23.50
2018-11-12T12:28:45.456Z,23.80
2018-11-12T12:31:13.806Z,24.20
2018-11-12T12:33:42.137Z,24.30
2018-11-12T12:36:10.661Z,24.00
2018-11-12T12:38:38.983Z,23.50
2018-11-12T12:41:07.342Z,22.80
2018-11-12T12:43:35.704Z,21.70
2018-11-12T12:46:04.851Z,21.30
2018-11-12T12:48:33.176Z,21.20
2018-11-12T12:51:02.282Z,22.00
2018-11-12T12:53:30.648Z,22.00
2018-11-12T12:55:59.848Z,22.40
2018-11-12T12:58:28.238Z,22.40
2018-11-12T13:00:56.520Z,22.30
2018-11-12T13:03:24.959Z,22.00
2018-11-12T13:05:53.379Z,22.30
2018-11-12T13:08:21.756Z,22.20
2018-11-12T13:10:50.194Z,21.80
2018-11-12T13:13:18.629Z,21.40
2018-11-12T13:15:47.092Z,21.30
2018-11-12T13:18:16.217Z,21.60
2018-11-12T13:20:44.700Z,21.70
2018-11-12T13:23:13.079Z,22.00
2018-11-12T13:25:41.433Z,22.70
2018-11-12T13:28:10.611Z,23.50
2018-11-12T13:30:38.998Z,23.50
2018-11-12T13:33:07.353Z,23.70
2018-11-12T13:35:36.585Z,23.10
2018-11-12T13:38:05.710Z,23.00
2018-11-12T13:40:34.113Z,23.00
2018-11-12T13:43:02.541Z,23.10
2018-11-12T13:45:30.890Z,22.70
2018-11-12T13:47:59.661Z,21.90
2018-11-12T13:50:28.004Z,21.10
2018-11-12T13:52:56.400Z,20.60
2018-11-12T13:55:24.685Z,20.80
2018-11-12T13:57:53.027Z,21.00
2018-11-12T14:00:21.412Z,20.90
2018-11-12T14:02:49.722Z,20.70
2018-11-12T14:05:18.078Z,20.20
2018-11-12T14:07:46.409Z,19.70
2018-11-12T14:10:14.974Z,19.70
2018-11-12T14:12:43.445Z,20.00
2018-11-12T14:15:11.795Z,20.50
2018-11-12T14:17:40.163Z,21.00
2018-11-12T14:20:08.672Z,21.50
2018-11-12T14:22:36.893Z,21.80
2018-11-12T14:25:05.227Z,21.90
2018-11-12T14:27:33.647Z,22.20
2018-11-12T14:30:02.406Z,22.10
2018-11-12T14:32:30.881Z,22.00
2018-11-12T14:34:59.207Z,21.50
2018-11-12T14:37:27.989Z,21.20
2018-11-12T14:39:57.212Z,21.00
2018-11-12T14:42:25.601Z,21.00
2018-11-12T14:44:53.994Z,20.90
2018-11-12T14:47:22.348Z,20.70
2018-11-12T14:49:51.442Z,19.90
2018-11-12T14:52:20.556Z,19.50
2018-11-12T14:54:49.013Z,19.50
2018-11-12T14:57:17.322Z,19.00
2018-11-12T14:59:45.712Z,18.60
2018-11-12T15:02:14.049Z,18.30
2018-11-12T15:04:43.177Z,17.80
2018-11-12T15:07:11.552Z,17.80
2018-11-12T15:09:39.942Z,17.60
2018-11-12T15:12:08.288Z,17.40
2018-11-12T15:14:37.059Z,17.30
2018-11-12T15:17:05.361Z,17.20
2018-11-12T15:19:34.450Z,17.00
2018-11-12T15:22:03.590Z,16.90
2018-11-12T15:24:31.927Z,16.90
2018-11-12T15:27:01.084Z,16.80
2018-11-12T15:29:29.497Z,16.80
2018-11-12T15:31:57.805Z,16.70
2018-11-12T15:34:26.903Z,16.60
2018-11-12T15:36:55.446Z,16.60
2018-11-12T15:39:23.766Z,16.60
2018-11-12T15:41:52.078Z,16.60
2018-11-12T15:44:20.436Z,16.50
2018-11-12T15:46:48.759Z,16.50
2018-11-12T15:49:17.934Z,16.50
2018-11-12T15:51:46.275Z,16.50
2018-11-12T15:54:14.660Z,16.50
2018-11-12T15:56:43.020Z,16.50
2018-11-12T15:59:12.141Z,16.60
2018-11-12T16:01:40.512Z,16.50
2018-11-12T16:04:08.858Z,17.10
2018-11-12T16:06:37.293Z,16.50
2018-11-12T16:09:05.551Z,16.60
2018-11-12T16:11:34.551Z,16.50
2018-11-12T16:14:02.916Z,16.50
2018-11-12T16:16:31.467Z,16.60
2018-11-12T16:19:00.621Z,16.50
2018-11-12T16:21:29.030Z,16.50
2018-11-12T16:23:57.362Z,16.50
2018-11-12T16:26:25.870Z,16.50
2018-11-12T16:28:54.282Z,16.50
2018-11-12T16:31:22.706Z,16.40
2018-11-12T16:33:51.125Z,16.40
2018-11-12T16:36:19.447Z,16.40
2018-11-12T16:38:47.801Z,16.40
2018-11-12T16:41:16.141Z,16.40
2018-11-12T16:43:44.495Z,16.30
2018-11-12T16:46:12.825Z,16.40
2018-11-12T16:48:41.264Z,16.40
2018-11-12T16:51:09.596Z,16.40
2018-11-12T16:53:37.966Z,16.40
2018-11-12T16:56:06.404Z,16.40
2018-11-12T16:58:34.872Z,16.40
2018-11-12T17:01:03.258Z,16.40
2018-11-12T17:03:32.306Z,16.30
2018-11-12T17:06:00.799Z,16.30
2018-11-12T17:08:29.932Z,16.30
2018-11-12T17:10:58.277Z,16.30
2018-11-12T17:13:27.379Z,16.20
2018-11-12T17:15:56.474Z,16.20
2018-11-12T17:18:25.584Z,16.20
2018-11-12T17:20:54.023Z,16.20
2018-11-12T17:23:22.358Z,16.10
2018-11-12T17:25:50.699Z,16.10
2018-11-12T17:28:19.845Z,16.00
2018-11-12T17:30:48.206Z,16.00
2018-11-12T17:33:16.547Z,16.10
2018-11-12T17:35:44.923Z,16.00
2018-11-12T17:38:13.303Z,16.00
2018-11-12T17:40:41.658Z,15.70
2018-11-12T17:43:10.059Z,15.60
2018-11-12T17:45:38.386Z,15.50
2018-11-12T17:48:06.919Z,15.40
2018-11-12T17:50:35.252Z,15.40
2018-11-12T17:53:03.627Z,15.40
2018-11-12T17:55:32.013Z,15.30
2018-11-12T17:58:00.356Z,15.30
2018-11-12T18:00:29.552Z,15.10
2018-11-12T18:02:58.666Z,15.00
2018-11-12T18:05:27.792Z,14.90
2018-11-12T18:07:56.166Z,14.90
2018-11-12T18:10:24.560Z,14.90
2018-11-12T18:12:52.945Z,14.80
2018-11-12T18:15:21.312Z,14.80
2018-11-12T18:17:49.638Z,14.70
2018-11-12T18:20:18.875Z,14.50
2018-11-12T18:22:47.221Z,14.50
2018-11-12T18:25:15.597Z,14.50
2018-11-12T18:27:44.728Z,14.50
2018-11-12T18:30:13.246Z,14.50
2018-11-12T18:32:41.466Z,14.50
2018-11-12T18:35:09.846Z,14.50
2018-11-12T18:37:38.258Z,14.40
2018-11-12T18:40:06.631Z,14.40
2018-11-12T18:42:34.976Z,14.40
2018-11-12T18:45:03.682Z,14.30
2018-11-12T18:47:32.071Z,14.30
2018-11-12T18:50:00.410Z,14.20
2018-11-12T18:52:29.561Z,14.10
2018-11-12T18:54:57.889Z,14.10
2018-11-12T18:57:26.318Z,14.00
2018-11-12T18:59:55.401Z,14.00
2018-11-12T19:02:23.899Z,14.00
2018-11-12T19:04:52.232Z,14.00
2018-11-12T19:07:21.398Z,13.90
2018-11-12T19:09:49.750Z,13.80
2018-11-12T19:12:18.117Z,13.80
2018-11-12T19:14:46.501Z,13.70
2018-11-12T19:17:14.889Z,13.70
2018-11-12T19:19:43.223Z,13.60
2018-11-12T19:22:12.376Z,13.50
2018-11-12T19:24:40.745Z,13.40
2018-11-12T19:27:09.225Z,13.40
2018-11-12T19:29:37.581Z,13.30
2018-11-12T19:32:05.933Z,13.20
2018-11-12T19:34:35.055Z,13.10
2018-11-12T19:37:03.415Z,13.10
2018-11-12T19:39:32.548Z,12.80
2018-11-12T19:42:00.940Z,12.90
2018-11-12T19:44:29.289Z,12.80
2018-11-12T19:46:57.650Z,12.80
2018-11-12T19:49:26.844Z,12.60
2018-11-12T19:51:55.309Z,12.60
2018-11-12T19:54:23.748Z,12.60
2018-11-12T19:56:52.106Z,12.60
2018-11-12T19:59:20.487Z,12.60
2018-11-12T20:01:48.895Z,12.40
2018-11-12T20:04:17.300Z,12.40
2018-11-12T20:06:45.870Z,12.30
2018-11-12T20:09:14.209Z,12.30
2018-11-12T20:11:42.564Z,12.20
2018-11-12T20:14:11.709Z,12.10
2018-11-12T20:16:40.088Z,12.10
2018-11-12T20:19:08.474Z,12.10
2018-11-12T20:21:36.861Z,12.10
2018-11-12T20:24:05.209Z,12.10
2018-11-12T20:26:33.572Z,12.10
2018-11-12T20:29:01.925Z,12.10
2018-11-12T20:31:30.369Z,12.00
2018-11-12T20:33:58.738Z,12.00
2018-11-12T20:36:27.086Z,12.00
2018-11-12T20:38:55.490Z,12.00
2018-11-12T20:41:23.811Z,12.00
2018-11-12T20:43:52.248Z,12.00
2018-11-12T20:46:20.624Z,12.00
2018-11-12T20:48:48.945Z,12.00
2018-11-12T20:51:17.327Z,12.00
2018-11-12T20:53:45.670Z,12.00
2018-11-12T20:56:14.038Z,12.00
2018-11-12T20:58:42.395Z,12.00
2018-11-12T21:01:11.519Z,12.00
2018-11-12T21:03:39.912Z,11.90
2018-11-12T21:06:08.279Z,12.00
2018-11-12T21:08:36.676Z,12.00
2018-11-12T21:11:05.043Z,12.00
2018-11-12T21:13:33.381Z,12.00
2018-11-12T21:16:02.618Z,12.00
2018-11-12T21:18:30.987Z,12.00
2018-11-12T21:20:59.333Z,11.90
2018-11-12T21:23:28.471Z,12.00
2018-11-12T21:25:56.820Z,12.00
2018-11-12T21:28:25.987Z,11.90
2018-11-12T21:30:54.340Z,11.90
2018-11-12T21:33:22.701Z,11.90
2018-11-12T21:35:51.079Z,11.90
2018-11-12T21:38:19.468Z,11.90
2018-11-12T21:40:47.834Z,11.90
2018-11-12T21:43:16.370Z,11.90
2018-11-12T21:45:45.310Z,11.90
2018-11-12T21:48:13.809Z,11.90
2018-11-12T21:50:42.142Z,11.90
2018-11-12T21:53:11.266Z,11.80
2018-11-12T21:55:39.687Z,11.80
2018-11-12T21:58:08.025Z,11.80
2018-11-12T22:00:36.395Z,11.80
2018-11-12T22:03:05.509Z,11.70
2018-11-12T22:05:33.873Z,11.70
2018-11-12T22:08:02.227Z,11.70
2018-11-12T22:10:30.588Z,11.70
2018-11-12T22:12:58.955Z,11.70
2018-11-12T22:15:27.304Z,11.70
2018-11-12T22:17:55.645Z,11.70
2018-11-12T22:20:24.763Z,11.70
2018-11-12T22:22:53.203Z,11.60
2018-11-12T22:25:21.841Z,11.70
2018-11-12T22:27:50.176Z,11.70
2018-11-12T22:30:18.524Z,11.70
2018-11-12T22:32:46.903Z,11.60
2018-11-12T22:35:15.249Z,11.60
2018-11-12T22:37:43.708Z,11.60
2018-11-12T22:40:11.978Z,11.60
2018-11-12T22:42:40.343Z,11.60
2018-11-12T22:45:08.695Z,11.60
2018-11-12T22:47:37.164Z,11.60
2018-11-12T22:50:05.509Z,11.60
2018-11-12T22:52:33.970Z,11.60
2018-11-12T22:55:02.520Z,11.70
2018-11-12T22:57:30.859Z,11.70
2018-11-12T22:59:59.203Z,11.70
2018-11-12T23:02:27.550Z,11.70
2018-11-12T23:04:55.899Z,11.70
2018-11-12T23:07:24.425Z,11.70
2018-11-12T23:09:52.788Z,11.70
2018-11-12T23:12:21.489Z,11.70
2018-11-12T23:14:49.817Z,11.70
2018-11-12T23:17:18.226Z,11.70
2018-11-12T23:19:46.637Z,11.70
2018-11-12T23:22:15.685Z,11.70
2018-11-12T23:24:44.062Z,11.70
2018-11-12T23:27:12.456Z,11.70
2018-11-12T23:29:40.815Z,11.70
2018-11-12T23:32:09.159Z,11.70
2018-11-12T23:34:37.788Z,11.70
2018-11-12T23:37:06.166Z,11.70
2018-11-12T23:39:34.542Z,11.70
2018-11-12T23:42:02.911Z,11.70
2018-11-12T23:44:32.011Z,11.70
2018-11-12T23:47:00.384Z,11.70
2018-11-12T23:49:29.517Z,11.70
2018-11-12T23:51:57.877Z,11.70
2018-11-12T23:54:26.253Z,11.70
2018-11-12T23:56:54.926Z,11.70
2018-11-12T23:59:24.029Z,11.60
